createdAt,value
2018-05-04T00:00:44.544Z,14.77
2018-05-04T00:03:12.903Z,15.37
2018-05-04T00:05:41.052Z,14.80
2018-05-04T00:08:09.945Z,15.50
2018-05-04T00:10:38.845Z,14.57
2018-05-04T00:13:07.741Z,14.80
2018-05-04T00:15:35.893Z,15.03
2018-05-04T00:18:04.788Z,14.10
2018-05-04T00:20:33.679Z,14.97
2018-05-04T00:23:02.584Z,15.33
2018-05-04T00:25:30.729Z,14.27
2018-05-04T00:27:58.877Z,13.90
2018-05-04T00:30:26.992Z,14.00
2018-05-04T00:32:55.136Z,13.97
2018-05-04T00:35:23.291Z,13.10
2018-05-04T00:37:51.415Z,12.70
2018-05-04T00:40:19.548Z,12.30
2018-05-04T00:42:47.693Z,13.70
2018-05-04T00:45:15.824Z,11.87
2018-05-04T00:47:43.988Z,12.17
2018-05-04T00:50:12.880Z,12.33
2018-05-04T00:52:41.809Z,12.27
2018-05-04T00:55:09.927Z,12.20
2018-05-04T00:57:38.853Z,11.10
2018-05-04T01:00:06.988Z,11.90
2018-05-04T01:02:35.892Z,12.20
2018-05-04T01:05:04.045Z,11.87
2018-05-04T01:07:32.193Z,11.17
2018-05-04T01:10:00.322Z,11.87
2018-05-04T01:12:28.461Z,10.70
2018-05-04T01:14:57.365Z,11.50
2018-05-04T01:17:26.272Z,10.57
2018-05-04T01:19:54.400Z,11.20
2018-05-04T01:22:22.548Z,10.50
2018-05-04T01:24:50.687Z,10.23
2018-05-04T01:27:18.829Z,9.67
2018-05-04T01:29:47.734Z,10.03
2018-05-04T01:32:16.611Z,8.83
2018-05-04T01:34:45.517Z,9.53
2018-05-04T01:37:13.640Z,10.27
2018-05-04T01:39:41.788Z,9.50
2018-05-04T01:42:09.904Z,8.37
2018-05-04T01:44:38.051Z,8.90
2018-05-04T01:47:06.173Z,9.20
2018-05-04T01:49:34.308Z,9.43
2018-05-04T01:52:02.444Z,9.07
2018-05-04T01:54:30.575Z,8.53
2018-05-04T01:56:59.460Z,7.90
2018-05-04T01:59:28.361Z,8.20
2018-05-04T02:01:57.326Z,7.63
2018-05-04T02:04:25.495Z,7.93
2018-05-04T02:06:53.589Z,8.10
2018-05-04T02:09:22.488Z,7.67
2018-05-04T02:11:50.605Z,7.00
2018-05-04T02:14:18.749Z,7.37
2018-05-04T02:16:46.866Z,7.33
2018-05-04T02:19:15.001Z,7.30
2018-05-04T02:21:43.148Z,6.90
2018-05-04T02:24:11.281Z,6.90
2018-05-04T02:26:39.414Z,7.10
2018-05-04T02:29:07.553Z,6.97
2018-05-04T02:31:36.516Z,6.53
2018-05-04T02:34:04.660Z,6.63
2018-05-04T02:36:32.782Z,6.20
2018-05-04T02:39:01.685Z,6.37
2018-05-04T02:41:29.805Z,6.40
2018-05-04T02:43:57.948Z,6.23
2018-05-04T02:46:26.088Z,5.60
2018-05-04T02:48:55.003Z,5.60
2018-05-04T02:51:23.125Z,6.50
2018-05-04T02:53:51.273Z,5.47
2018-05-04T02:56:19.405Z,5.57
2018-05-04T02:58:47.891Z,6.07
2018-05-04T03:01:16.018Z,6.00
2018-05-04T03:03:44.156Z,5.30
2018-05-04T03:06:12.292Z,5.40
2018-05-04T03:08:41.182Z,5.63
2018-05-04T03:11:10.079Z,5.33
2018-05-04T03:13:38.204Z,5.40
2018-05-04T03:16:06.349Z,5.53
2018-05-04T03:18:34.464Z,5.00
2018-05-04T03:21:02.611Z,4.90
2018-05-04T03:23:30.731Z,5.53
2018-05-04T03:25:58.881Z,5.17
2018-05-04T03:28:26.991Z,4.70
2018-05-04T03:30:55.133Z,5.60
2018-05-04T03:33:24.021Z,8.20
2018-05-04T03:35:52.924Z,8.53
2018-05-04T03:38:21.831Z,5.60
2018-05-04T03:40:49.960Z,4.90
2018-05-04T03:43:18.096Z,5.33
2018-05-04T03:45:46.241Z,4.60
2018-05-04T03:48:14.368Z,4.30
2018-05-04T03:50:42.549Z,4.70
2018-05-04T03:53:10.682Z,4.60
2018-05-04T03:55:38.820Z,5.37
2018-05-04T03:58:19.453Z,5.27
2018-05-04T04:00:59.294Z,4.23
2018-05-04T04:03:39.067Z,4.87
2018-05-04T04:06:07.977Z,5.00
2018-05-04T04:08:36.097Z,5.27
2018-05-04T04:11:04.252Z,4.87
2018-05-04T04:13:32.388Z,5.83
2018-05-04T04:16:00.509Z,5.57
2018-05-04T04:18:28.654Z,5.80
2018-05-04T04:20:56.879Z,5.57
2018-05-04T04:23:25.785Z,4.93
2018-05-04T04:25:53.919Z,4.93
2018-05-04T04:28:23.560Z,5.20
2018-05-04T04:30:51.717Z,5.30
2018-05-04T04:33:20.613Z,5.50
2018-05-04T04:35:48.736Z,5.37
2018-05-04T04:38:16.873Z,4.50
2018-05-04T04:40:44.995Z,5.57
2018-05-04T04:43:13.216Z,4.80
2018-05-04T04:45:41.410Z,5.00
2018-05-04T04:48:09.561Z,5.47
2018-05-04T04:50:37.688Z,5.57
2018-05-04T04:53:05.824Z,6.50
2018-05-04T04:55:33.945Z,5.93
2018-05-04T04:58:02.073Z,5.67
2018-05-04T05:00:30.223Z,6.53
2018-05-04T05:02:58.336Z,6.20
2018-05-04T05:05:26.485Z,5.57
2018-05-04T05:07:54.837Z,6.50
2018-05-04T05:10:23.055Z,6.80
2018-05-04T05:12:51.173Z,6.30
2018-05-04T05:15:20.091Z,6.80
2018-05-04T05:17:48.206Z,5.50
2018-05-04T05:20:16.451Z,5.60
2018-05-04T05:22:44.576Z,6.77
2018-05-04T05:25:13.488Z,7.00
2018-05-04T05:27:41.599Z,6.10
2018-05-04T05:30:09.860Z,6.93
2018-05-04T05:32:37.985Z,6.47
2018-05-04T05:35:06.130Z,6.30
2018-05-04T05:37:34.247Z,6.67
2018-05-04T05:40:02.399Z,7.23
2018-05-04T05:42:30.615Z,10.20
2018-05-04T05:44:58.653Z,9.63
2018-05-04T05:47:26.800Z,11.63
2018-05-04T05:49:54.917Z,8.40
2018-05-04T05:52:23.074Z,8.37
2018-05-04T05:54:51.196Z,6.87
2018-05-04T05:57:19.333Z,7.20
2018-05-04T05:59:47.462Z,7.77
2018-05-04T06:02:16.383Z,7.63
2018-05-04T06:04:44.509Z,8.20
2018-05-04T06:07:12.655Z,8.33
2018-05-04T06:09:40.760Z,8.13
2018-05-04T06:12:09.670Z,7.30
2018-05-04T06:14:37.863Z,8.20
2018-05-04T06:17:05.934Z,7.93
2018-05-04T06:19:34.049Z,8.73
2018-05-04T06:22:02.211Z,8.70
2018-05-04T06:24:30.330Z,7.90
2018-05-04T06:26:58.475Z,8.83
2018-05-04T06:29:27.381Z,9.17
2018-05-04T06:31:55.540Z,8.33
2018-05-04T06:34:24.476Z,9.70
2018-05-04T06:36:52.653Z,8.83
2018-05-04T06:39:20.780Z,9.60
2018-05-04T06:41:48.906Z,8.77
2018-05-04T06:44:17.054Z,10.37
2018-05-04T06:46:45.164Z,9.00
2018-05-04T06:49:13.304Z,9.30
2018-05-04T06:51:41.429Z,9.03
2018-05-04T06:54:10.334Z,9.10
2018-05-04T06:56:38.507Z,9.37
2018-05-04T06:59:06.636Z,9.90
2018-05-04T07:01:34.802Z,9.90
2018-05-04T07:04:02.917Z,10.87
2018-05-04T07:06:31.057Z,9.27
2018-05-04T07:08:59.224Z,9.90
2018-05-04T07:11:27.329Z,10.30
2018-05-04T07:13:55.480Z,9.80
2018-05-04T07:16:24.380Z,9.00
2018-05-04T07:18:53.292Z,9.50
2018-05-04T07:21:21.425Z,9.83
2018-05-04T07:23:49.558Z,9.97
2018-05-04T07:26:17.704Z,9.50
2018-05-04T07:28:45.902Z,9.13
2018-05-04T07:31:15.516Z,9.00
2018-05-04T07:33:43.654Z,9.57
2018-05-04T07:36:11.806Z,9.27
2018-05-04T07:38:40.105Z,10.30
2018-05-04T07:41:08.269Z,9.20
2018-05-04T07:43:36.396Z,10.33
2018-05-04T07:46:04.545Z,9.50
2018-05-04T07:48:32.668Z,8.90
2018-05-04T07:51:00.820Z,9.17
2018-05-04T07:53:29.058Z,9.27
2018-05-04T07:55:57.311Z,8.83
2018-05-04T07:58:25.441Z,9.00
2018-05-04T08:00:53.585Z,10.70
2018-05-04T08:03:21.711Z,10.00
2018-05-04T08:05:49.860Z,10.20
2018-05-04T08:08:18.756Z,9.70
2018-05-04T08:10:47.666Z,9.07
2018-05-04T08:13:15.798Z,9.63
2018-05-04T08:15:43.965Z,9.47
2018-05-04T08:18:12.076Z,8.90
2018-05-04T08:20:40.217Z,9.53
2018-05-04T08:23:08.352Z,8.83
2018-05-04T08:25:36.489Z,9.30
2018-05-04T08:28:04.658Z,8.87
2018-05-04T08:30:33.537Z,9.10
2018-05-04T08:33:02.448Z,9.30
2018-05-04T08:35:30.629Z,9.30
2018-05-04T08:37:58.720Z,8.43
2018-05-04T08:40:26.881Z,9.50
2018-05-04T08:42:55.079Z,9.17
2018-05-04T08:45:23.157Z,9.97
2018-05-04T08:47:51.312Z,10.00
2018-05-04T08:50:19.442Z,9.63
2018-05-04T08:52:47.597Z,11.60
2018-05-04T08:55:15.893Z,9.60
2018-05-04T08:57:44.034Z,9.87
2018-05-04T09:00:12.933Z,9.57
2018-05-04T09:02:41.849Z,9.17
2018-05-04T09:05:10.054Z,9.10
2018-05-04T09:07:38.315Z,8.20
2018-05-04T09:10:06.271Z,8.77
2018-05-04T09:12:34.651Z,10.90
2018-05-04T09:15:02.810Z,12.27
2018-05-04T09:17:30.938Z,8.90
2018-05-04T09:20:00.600Z,9.43
2018-05-04T09:22:28.796Z,9.53
2018-05-04T09:24:57.146Z,9.20
2018-05-04T09:27:25.256Z,9.57
2018-05-04T09:29:53.590Z,9.20
2018-05-04T09:32:21.708Z,9.17
2018-05-04T09:34:49.852Z,9.83
2018-05-04T09:37:18.009Z,12.73
2018-05-04T09:39:46.149Z,9.90
2018-05-04T09:42:15.054Z,10.23
2018-05-04T09:44:43.199Z,10.27
2018-05-04T09:47:12.087Z,8.83
2018-05-04T09:49:40.236Z,8.73
2018-05-04T09:52:08.362Z,10.77
2018-05-04T09:54:36.488Z,10.50
2018-05-04T09:57:04.632Z,8.40
2018-05-04T09:59:32.793Z,10.70
2018-05-04T10:02:00.929Z,9.83
2018-05-04T10:04:29.816Z,9.50
2018-05-04T10:06:58.737Z,9.43
2018-05-04T10:09:26.868Z,9.00
2018-05-04T10:11:55.768Z,8.37
2018-05-04T10:14:24.656Z,10.67
2018-05-04T10:16:53.583Z,9.67
2018-05-04T10:19:21.688Z,9.23
2018-05-04T10:21:49.854Z,10.30
2018-05-04T10:24:17.970Z,9.63
2018-05-04T10:26:46.110Z,9.20
2018-05-04T10:29:14.236Z,9.57
2018-05-04T10:31:42.381Z,9.17
2018-05-04T10:34:10.530Z,9.80
2018-05-04T10:36:38.692Z,9.20
2018-05-04T10:39:06.825Z,9.30
2018-05-04T10:41:34.949Z,10.03
2018-05-04T10:44:03.869Z,8.67
2018-05-04T10:46:32.365Z,9.53
2018-05-04T10:49:00.496Z,8.37
2018-05-04T10:51:29.381Z,8.50
2018-05-04T10:53:58.290Z,10.23
2018-05-04T10:56:26.408Z,8.70
2018-05-04T10:58:54.571Z,9.80
2018-05-04T11:01:22.733Z,10.53
2018-05-04T11:03:50.864Z,9.80
2018-05-04T11:06:19.780Z,10.40
2018-05-04T11:08:47.924Z,11.53
2018-05-04T11:11:16.856Z,9.10
2018-05-04T11:13:44.991Z,9.10
2018-05-04T11:16:13.896Z,8.90
2018-05-04T11:18:42.024Z,9.43
2018-05-04T11:21:10.150Z,9.00
2018-05-04T11:23:38.284Z,8.50
2018-05-04T11:26:07.174Z,10.07
2018-05-04T11:28:36.456Z,10.07
2018-05-04T11:31:04.584Z,9.63
2018-05-04T11:33:32.716Z,9.27
2018-05-04T11:36:01.637Z,9.43
2018-05-04T11:38:29.772Z,9.87
2018-05-04T11:40:58.676Z,9.80
2018-05-04T11:43:27.173Z,9.67
2018-05-04T11:45:55.305Z,9.60
2018-05-04T11:48:23.444Z,10.67
2018-05-04T11:50:51.581Z,8.63
2018-05-04T11:53:19.720Z,8.10
2018-05-04T11:55:48.635Z,8.80
2018-05-04T11:58:17.537Z,8.03
2018-05-04T12:00:45.676Z,9.33
2018-05-04T12:03:14.577Z,9.73
2018-05-04T12:05:43.480Z,8.20
2018-05-04T12:08:11.625Z,8.63
2018-05-04T12:10:39.760Z,8.50
2018-05-04T12:13:07.880Z,8.17
2018-05-04T12:15:36.785Z,8.30
2018-05-04T12:18:04.921Z,9.23
2018-05-04T12:20:33.057Z,9.00
2018-05-04T12:23:01.217Z,7.50
2018-05-04T12:25:29.337Z,7.27
2018-05-04T12:27:57.513Z,7.70
2018-05-04T12:30:25.656Z,7.17
2018-05-04T12:32:53.784Z,7.53
2018-05-04T12:35:21.917Z,7.10
2018-05-04T12:37:50.128Z,6.63
2018-05-04T12:40:18.306Z,7.87
2018-05-04T12:42:46.453Z,6.90
2018-05-04T12:45:15.353Z,6.60
2018-05-04T12:47:43.680Z,7.47
2018-05-04T12:50:11.807Z,7.20
2018-05-04T12:52:39.944Z,6.87
2018-05-04T12:55:08.077Z,7.27
2018-05-04T12:57:36.220Z,5.87
2018-05-04T13:00:05.213Z,7.50
2018-05-04T13:02:34.257Z,7.13
2018-05-04T13:05:02.385Z,7.43
2018-05-04T13:07:30.504Z,7.23
2018-05-04T13:09:58.644Z,6.93
2018-05-04T13:12:26.774Z,7.57
2018-05-04T13:14:56.021Z,7.73
2018-05-04T13:17:24.152Z,7.50
2018-05-04T13:19:53.032Z,7.03
2018-05-04T13:22:21.919Z,7.40
2018-05-04T13:24:50.812Z,6.43
2018-05-04T13:27:18.944Z,7.00
2018-05-04T13:29:47.085Z,7.20
2018-05-04T13:32:15.210Z,7.43
2018-05-04T13:34:44.112Z,6.93
2018-05-04T13:37:12.991Z,6.40
2018-05-04T13:39:41.895Z,7.23
2018-05-04T13:42:10.774Z,6.80
2018-05-04T13:44:39.718Z,7.10
2018-05-04T13:47:07.803Z,7.20
2018-05-04T13:49:36.713Z,7.20
2018-05-04T13:52:04.829Z,8.07
2018-05-04T13:54:32.976Z,6.93
2018-05-04T13:57:01.097Z,6.80
2018-05-04T13:59:29.257Z,7.20
2018-05-04T14:01:57.396Z,6.63
2018-05-04T14:04:25.512Z,7.30
2018-05-04T14:06:53.669Z,7.30
2018-05-04T14:09:21.788Z,6.70
2018-05-04T14:11:50.701Z,6.60
2018-05-04T14:14:18.840Z,6.23
2018-05-04T14:16:46.972Z,7.17
2018-05-04T14:19:15.093Z,6.90
2018-05-04T14:21:43.992Z,6.67
2018-05-04T14:24:12.877Z,6.67
2018-05-04T14:26:41.780Z,6.80
2018-05-04T14:29:09.905Z,6.77
2018-05-04T14:31:38.044Z,6.10
2018-05-04T14:34:06.161Z,6.83
2018-05-04T14:36:34.292Z,6.23
2018-05-04T14:39:02.420Z,6.20
2018-05-04T14:41:31.333Z,6.63
2018-05-04T14:43:59.457Z,7.00
2018-05-04T14:46:27.604Z,5.60
2018-05-04T14:48:55.860Z,6.40
2018-05-04T14:51:24.129Z,6.30
2018-05-04T14:53:52.212Z,6.40
2018-05-04T14:56:20.336Z,10.43
2018-05-04T14:58:48.485Z,6.50
2018-05-04T15:01:16.607Z,5.67
2018-05-04T15:03:44.753Z,5.90
2018-05-04T15:06:12.877Z,5.33
2018-05-04T15:08:41.016Z,5.63
2018-05-04T15:11:09.289Z,5.23
2018-05-04T15:13:37.561Z,4.53
2018-05-04T15:16:05.743Z,4.60
2018-05-04T15:18:33.818Z,5.20
2018-05-04T15:21:01.953Z,5.00
2018-05-04T15:23:30.859Z,5.43
2018-05-04T15:25:58.978Z,4.87
2018-05-04T15:28:27.119Z,4.60
2018-05-04T15:30:55.233Z,5.13
2018-05-04T15:33:23.374Z,4.60
2018-05-04T15:35:51.488Z,4.43
2018-05-04T15:38:19.626Z,4.30
2018-05-04T15:40:47.756Z,4.43
2018-05-04T15:43:15.895Z,4.40
2018-05-04T15:45:44.009Z,4.33
2018-05-04T15:48:17.821Z,4.27
2018-05-04T15:50:51.484Z,4.80
2018-05-04T15:53:20.395Z,4.30
2018-05-04T15:55:48.876Z,3.50
2018-05-04T15:58:17.757Z,4.03
2018-05-04T16:00:46.669Z,4.07
2018-05-04T16:03:14.803Z,3.50
2018-05-04T16:05:43.712Z,4.80
2018-05-04T16:08:11.848Z,3.77
2018-05-04T16:10:39.988Z,3.50
2018-05-04T16:13:08.116Z,4.60
2018-05-04T16:15:37.020Z,3.77
2018-05-04T16:18:05.144Z,3.80
2018-05-04T16:20:33.281Z,3.87
2018-05-04T16:23:01.419Z,3.40
2018-05-04T16:25:30.318Z,3.07
2018-05-04T16:27:58.458Z,3.70
2018-05-04T16:30:26.601Z,3.37
2018-05-04T16:32:54.725Z,3.67
2018-05-04T16:35:23.631Z,3.40
2018-05-04T16:37:51.748Z,3.80
2018-05-04T16:40:19.896Z,3.23
2018-05-04T16:42:48.025Z,3.33
2018-05-04T16:45:16.942Z,3.60
2018-05-04T16:47:50.750Z,4.50
2018-05-04T16:50:18.888Z,3.33
2018-05-04T16:52:47.004Z,4.37
2018-05-04T16:55:15.132Z,4.10
2018-05-04T16:57:43.271Z,3.63
2018-05-04T17:00:11.387Z,3.80
2018-05-04T17:02:39.543Z,3.63
2018-05-04T17:05:07.669Z,3.87
2018-05-04T17:07:35.924Z,4.00
2018-05-04T17:10:04.040Z,3.40
2018-05-04T17:12:32.285Z,3.50
2018-05-04T17:15:00.415Z,3.57
2018-05-04T17:17:29.316Z,3.27
2018-05-04T17:19:57.443Z,3.27
2018-05-04T17:22:25.583Z,3.77
2018-05-04T17:24:53.703Z,3.73
2018-05-04T17:27:21.864Z,3.63
2018-05-04T17:29:50.100Z,3.30
2018-05-04T17:32:18.234Z,4.00
2018-05-04T17:34:46.357Z,3.37
2018-05-04T17:37:14.520Z,3.07
2018-05-04T17:39:42.649Z,3.47
2018-05-04T17:42:10.772Z,3.30
2018-05-04T17:44:39.248Z,3.60
2018-05-04T17:47:07.484Z,4.23
2018-05-04T17:49:35.765Z,3.07
2018-05-04T17:52:03.894Z,3.53
2018-05-04T17:54:32.100Z,3.27
2018-05-04T17:57:00.226Z,3.40
2018-05-04T17:59:28.449Z,2.70
2018-05-04T18:01:56.563Z,3.27
2018-05-04T18:04:24.718Z,2.97
2018-05-04T18:06:52.824Z,2.90
2018-05-04T18:09:20.969Z,3.13
2018-05-04T18:11:49.120Z,3.13
2018-05-04T18:14:17.256Z,3.03
2018-05-04T18:16:45.381Z,3.23
2018-05-04T18:19:13.542Z,3.20
2018-05-04T18:21:41.757Z,2.80
2018-05-04T18:24:09.964Z,3.20
2018-05-04T18:26:38.103Z,3.80
2018-05-04T18:29:06.316Z,2.80
2018-05-04T18:31:34.460Z,2.90
2018-05-04T18:34:03.345Z,3.00
2018-05-04T18:36:32.286Z,2.80
2018-05-04T18:39:00.426Z,2.97
2018-05-04T18:41:28.598Z,2.97
2018-05-04T18:43:57.582Z,2.97
2018-05-04T18:46:26.513Z,2.80
2018-05-04T18:48:54.671Z,3.20
2018-05-04T18:51:22.836Z,2.83
2018-05-04T18:53:50.956Z,3.07
2018-05-04T18:56:19.097Z,3.03
2018-05-04T18:58:48.004Z,3.10
2018-05-04T19:01:16.155Z,3.10
2018-05-04T19:03:44.287Z,3.20
2018-05-04T19:06:13.173Z,2.90
2018-05-04T19:08:42.053Z,3.30
2018-05-04T19:11:10.999Z,3.23
2018-05-04T19:13:39.192Z,2.70
2018-05-04T19:16:07.926Z,2.97
2018-05-04T19:18:36.072Z,3.23
2018-05-04T19:21:04.976Z,3.07
2018-05-04T19:23:33.173Z,3.23
2018-05-04T19:26:01.339Z,3.57
2018-05-04T19:28:29.472Z,2.97
2018-05-04T19:30:57.706Z,3.77
2018-05-04T19:33:25.855Z,3.33
2018-05-04T19:35:54.006Z,3.60
2018-05-04T19:38:22.913Z,3.30
2018-05-04T19:40:51.142Z,3.57
2018-05-04T19:43:19.294Z,3.17
2018-05-04T19:45:47.446Z,3.47
2018-05-04T19:48:15.575Z,3.87
2018-05-04T19:50:44.508Z,3.83
2018-05-04T19:53:12.640Z,3.47
2018-05-04T19:55:40.887Z,3.33
2018-05-04T19:58:09.122Z,3.63
2018-05-04T20:00:37.389Z,3.83
2018-05-04T20:03:05.571Z,3.70
2018-05-04T20:05:33.705Z,3.70
2018-05-04T20:08:02.616Z,3.43
2018-05-04T20:10:30.773Z,3.27
2018-05-04T20:12:58.896Z,3.63
2018-05-04T20:15:27.028Z,3.67
2018-05-04T20:17:55.202Z,3.63
2018-05-04T20:20:23.341Z,4.00
2018-05-04T20:22:52.233Z,4.00
2018-05-04T20:25:20.357Z,3.60
2018-05-04T20:27:48.504Z,3.57
2018-05-04T20:30:16.642Z,3.53
2018-05-04T20:32:45.532Z,3.60
2018-05-04T20:35:14.437Z,4.00
2018-05-04T20:37:43.386Z,3.97
2018-05-04T20:40:12.227Z,3.67
2018-05-04T20:42:40.353Z,3.70
2018-05-04T20:45:08.505Z,4.03
2018-05-04T20:47:36.629Z,5.30
2018-05-04T20:50:05.544Z,4.57
2018-05-04T20:52:33.670Z,4.37
2018-05-04T20:55:01.810Z,4.63
2018-05-04T20:57:29.952Z,4.83
2018-05-04T20:59:58.449Z,4.20
2018-05-04T21:02:26.593Z,4.27
2018-05-04T21:04:54.753Z,4.67
2018-05-04T21:07:23.665Z,4.30
2018-05-04T21:09:51.784Z,4.00
2018-05-04T21:12:19.933Z,4.57
2018-05-04T21:14:48.070Z,4.70
2018-05-04T21:17:16.212Z,4.53
2018-05-04T21:19:44.693Z,4.23
2018-05-04T21:22:12.827Z,4.70
2018-05-04T21:24:40.944Z,4.23
2018-05-04T21:27:09.923Z,4.30
2018-05-04T21:29:37.982Z,4.67
2018-05-04T21:32:06.165Z,4.50
2018-05-04T21:34:34.306Z,4.80
2018-05-04T21:37:02.478Z,4.60
2018-05-04T21:39:30.622Z,4.37
2018-05-04T21:41:58.748Z,4.30
2018-05-04T21:44:26.896Z,4.87
2018-05-04T21:46:55.013Z,4.07
2018-05-04T21:49:23.924Z,4.63
2018-05-04T21:51:52.091Z,4.50
2018-05-04T21:54:20.236Z,4.27
2018-05-04T21:56:48.418Z,4.17
2018-05-04T21:59:17.320Z,4.00
2018-05-04T22:01:45.548Z,4.40
2018-05-04T22:04:13.688Z,4.00
2018-05-04T22:06:41.870Z,4.00
2018-05-04T22:09:10.058Z,4.30
2018-05-04T22:11:38.184Z,3.90
2018-05-04T22:14:06.348Z,4.20
2018-05-04T22:16:35.240Z,4.40
2018-05-04T22:19:03.431Z,4.20
2018-05-04T22:21:31.647Z,3.97
2018-05-04T22:23:59.821Z,4.00
2018-05-04T22:26:27.996Z,3.83
2018-05-04T22:28:56.104Z,4.27
2018-05-04T22:31:24.253Z,4.07
2018-05-04T22:33:52.385Z,4.53
2018-05-04T22:36:20.564Z,4.40
2018-05-04T22:38:48.690Z,3.80
2018-05-04T22:41:16.833Z,4.10
2018-05-04T22:43:45.046Z,3.90
2018-05-04T22:46:13.189Z,4.47
2018-05-04T22:48:42.080Z,3.70
2018-05-04T22:51:10.999Z,3.73
2018-05-04T22:53:39.124Z,4.20
2018-05-04T22:56:07.343Z,3.90
2018-05-04T22:58:35.465Z,4.13
2018-05-04T23:01:03.605Z,4.07
2018-05-04T23:03:31.728Z,4.17
2018-05-04T23:06:00.641Z,4.53
2018-05-04T23:08:28.768Z,3.97
2018-05-04T23:10:56.920Z,3.67
2018-05-04T23:13:25.043Z,3.80
2018-05-04T23:15:53.197Z,4.20
2018-05-04T23:18:21.416Z,3.93
2018-05-04T23:20:49.561Z,3.77
2018-05-04T23:23:17.685Z,3.37
2018-05-04T23:25:45.916Z,3.97
2018-05-04T23:28:14.060Z,4.00
2018-05-04T23:30:42.337Z,4.20
2018-05-04T23:33:10.463Z,3.70
2018-05-04T23:35:38.619Z,3.87
2018-05-04T23:38:06.784Z,4.60
2018-05-04T23:40:34.927Z,4.10
2018-05-04T23:43:03.840Z,4.17
2018-05-04T23:45:31.989Z,4.50
2018-05-04T23:48:00.899Z,4.23
2018-05-04T23:50:29.034Z,4.40
2018-05-04T23:52:57.183Z,4.60
2018-05-04T23:55:25.446Z,4.93
2018-05-04T23:57:53.589Z,4.30
